ADDS TAF Data INFO
IDs: Format: Raw Decoded Include METARs

Data at: 1945 UTC 28 Apr 2017

TAF for:EGPH (Edinburgh Arpt, --, UK) issued at 1653 UTC 28 Apr 2017
Text:TAF EGPH 281653Z 2818/2918 15005KT 9999 SCT045
Forecast period:1800 UTC 28 April 2017 to 1800 UTC 29 April 2017
Forecast type:FROM: standard forecast or significant change
Winds:from the SSE (150 degrees) at 6 MPH (5 knots; 2.6 m/s)
Visibility:6 or more sm (10+ km)
Ceiling:at least 12,000 feet AGL
Clouds: scattered clouds at 4500 feet AGL
Text:PROB30
Forecast period:1800 to 2000 UTC 28 April 2017
Forecast type:TEMPORARY: The following changes expected for less than half the time period
Visibility: 6 sm ( 9 km)
Clouds:missing
Weather:-SHRA (light rain showers)
Text:TEMPO 2818/2820 9000 -SHRA
Forecast period:0800 to 1200 UTC 29 April 2017
Forecast type:TEMPORARY: The following changes expected for less than half the time period
Visibility: 6 sm ( 9 km)
Clouds:missing
Weather:-SHRA (light rain showers)


Page loaded:  19:45 UTC  |   12:45 PM Pacific  |   01:45 PM Mountain  |   02:45 PM Central  |   03:45 PM Eastern

 

ADVISORIES

FORECASTS

FORECASTS

OBSERVATIONS

USER TOOLS

ABOUT US